Time;durP1;ratioP1;P1;durP2;ratioP2;P2;SDS_P1;SDS_P2;PMS_P1;PMS_P2;Temp;Humidity;BMP_temperature;BMP_pressure;BME280_temperature;BME280_humidity;BME280_pressure;Samples;Min_cycle;Max_cycle;Signal;HPM_P1;HPM_P2
2021/04/29 00:01:48;;;;;;;11.40;10.00;;;;;;;;;;5115692;27;20174;-73
2021/04/29 00:04:14;;;;;;;12.80;10.90;;;;;;;;;;5133349;27;20210;-74
2021/04/29 00:06:40;;;;;;;15.07;10.38;;;;;;;;;;5133203;27;20203;-74
2021/04/29 00:09:06;;;;;;;12.27;10.60;;;;;;;;;;5125213;27;20195;-74
2021/04/29 00:11:33;;;;;;;13.98;10.65;;;;;;;;;;5111771;28;20912;-76
2021/04/29 00:13:59;;;;;;;11.45;9.95;;;;;;;;;;5107575;27;20643;-75
2021/04/29 00:16:26;;;;;;;11.93;10.32;;;;;;;;;;5115978;27;20178;-74
2021/04/29 00:18:52;;;;;;;10.27;9.32;;;;;;;;;;5133122;27;20654;-74
2021/04/29 00:21:18;;;;;;;14.13;9.90;;;;;;;;;;5134378;27;20239;-74
2021/04/29 00:23:44;;;;;;;13.70;10.48;;;;;;;;;;5133930;27;20451;-74
2021/04/29 00:26:10;;;;;;;12.27;11.07;;;;;;;;;;5117887;27;20178;-74
2021/04/29 00:28:36;;;;;;;14.13;10.70;;;;;;;;;;5118233;27;20478;-74
2021/04/29 00:31:02;;;;;;;12.47;11.13;;;;;;;;;;5116625;27;20432;-75
2021/04/29 00:33:28;;;;;;;11.93;10.75;;;;;;;;;;5121530;27;20438;-75
2021/04/29 00:35:54;;;;;;;13.33;11.93;;;;;;;;;;5110130;27;20176;-73
2021/04/29 00:38:20;;;;;;;13.03;11.70;;;;;;;;;;5113219;28;20428;-75
2021/04/29 00:40:46;;;;;;;14.05;12.38;;;;;;;;;;5130173;27;20422;-74
2021/04/29 00:43:13;;;;;;;13.65;11.40;;;;;;;;;;5129791;27;20530;-75
2021/04/29 00:45:42;;;;;;;13.20;11.93;;;;;;;;;;5130498;27;20585;-74
2021/04/29 00:48:08;;;;;;;13.85;11.95;;;;;;;;;;5108592;28;20245;-75
2021/04/29 00:50:34;;;;;;;13.27;11.98;;;;;;;;;;5109879;28;20178;-74
2021/04/29 00:53:00;;;;;;;12.93;11.63;;;;;;;;;;5113370;28;20196;-74
2021/04/29 00:55:26;;;;;;;16.13;12.87;;;;;;;;;;5102050;28;20199;-74
2021/04/29 00:57:52;;;;;;;13.85;12.45;;;;;;;;;;5132762;28;20890;-75
2021/04/29 01:00:18;;;;;;;14.50;13.00;;;;;;;;;;5126761;28;20741;-75
2021/04/29 01:02:48;;;;;;;16.35;14.07;;;;;;;;;;5111996;28;20539;-75
2021/04/29 01:05:13;;;;;;;15.23;13.63;;;;;;;;;;5112573;28;20201;-75
2021/04/29 01:07:44;;;;;;;16.27;13.77;;;;;;;;;;5116823;28;20190;-75
2021/04/29 01:10:32;;;;;;;17.92;14.55;;;;;;;;;;5133996;28;20404;-76
2021/04/29 01:13:03;;;;;;;16.17;14.57;;;;;;;;;;5119275;28;20193;-75
2021/04/29 01:15:29;;;;;;;16.55;14.93;;;;;;;;;;5112839;28;20186;-76
2021/04/29 01:17:55;;;;;;;16.42;14.23;;;;;;;;;;5099383;28;20207;-74
2021/04/29 01:20:23;;;;;;;16.50;14.90;;;;;;;;;;5106477;28;20171;-74
2021/04/29 01:23:04;;;;;;;15.40;13.90;;;;;;;;;;5118318;27;20282;-75
2021/04/29 01:25:32;;;;;;;16.65;15.05;;;;;;;;;;5119125;27;20563;-74
2021/04/29 01:27:59;;;;;;;17.48;15.63;;;;;;;;;;5126967;27;20213;-74
2021/04/29 01:30:25;;;;;;;18.55;15.80;;;;;;;;;;5125145;27;20174;-74
2021/04/29 01:32:52;;;;;;;18.42;16.52;;;;;;;;;;5113986;28;20568;-72
2021/04/29 01:35:18;;;;;;;17.13;15.35;;;;;;;;;;5122350;27;20170;-74
2021/04/29 01:37:44;;;;;;;18.02;16.05;;;;;;;;;;5116960;28;20527;-75
2021/04/29 01:40:11;;;;;;;17.98;16.10;;;;;;;;;;5116937;28;20182;-75
2021/04/29 01:42:37;;;;;;;19.70;17.20;;;;;;;;;;5117979;27;20173;-75
2021/04/29 01:45:04;;;;;;;18.20;16.30;;;;;;;;;;5125679;27;20256;-74
2021/04/29 01:47:32;;;;;;;18.83;16.90;;;;;;;;;;5116207;28;20485;-75
2021/04/29 01:49:58;;;;;;;21.83;17.02;;;;;;;;;;5128474;27;20174;-74
2021/04/29 01:52:24;;;;;;;18.15;16.40;;;;;;;;;;5110496;27;20218;-74
2021/04/29 01:54:50;;;;;;;18.92;16.88;;;;;;;;;;5125344;27;20583;-75
2021/04/29 01:57:19;;;;;;;27.63;18.15;;;;;;;;;;5105796;27;20236;-75
2021/04/29 01:59:45;;;;;;;18.65;16.75;;;;;;;;;;5098288;28;20220;-75
2021/04/29 02:02:11;;;;;;;18.37;16.50;;;;;;;;;;5107095;27;20224;-74
2021/04/29 02:04:37;;;;;;;21.00;17.70;;;;;;;;;;5116304;28;20426;-74
2021/04/29 02:07:03;;;;;;;18.30;16.50;;;;;;;;;;5111794;27;20509;-73
2021/04/29 02:09:29;;;;;;;23.90;17.40;;;;;;;;;;5116468;28;20383;-75
2021/04/29 02:11:57;;;;;;;18.70;16.90;;;;;;;;;;5135421;27;20403;-75
2021/04/29 02:14:34;;;;;;;18.90;17.10;;;;;;;;;;5107566;27;20415;-74
2021/04/29 02:17:04;;;;;;;17.55;15.77;;;;;;;;;;5111747;28;20186;-75
2021/04/29 02:19:31;;;;;;;18.30;16.60;;;;;;;;;;5115813;28;20707;-72
2021/04/29 02:21:57;;;;;;;19.52;17.52;;;;;;;;;;5115579;28;20178;-74
2021/04/29 02:24:24;;;;;;;21.88;18.27;;;;;;;;;;5128673;27;20201;-75
2021/04/29 02:26:51;;;;;;;20.67;18.48;;;;;;;;;;5136463;27;20178;-73
2021/04/29 02:29:17;;;;;;;20.48;18.38;;;;;;;;;;5114940;27;20171;-73
2021/04/29 02:31:44;;;;;;;20.10;18.00;;;;;;;;;;5115172;28;20177;-75
2021/04/29 02:34:10;;;;;;;19.40;17.38;;;;;;;;;;5113537;28;20581;-76
2021/04/29 02:36:36;;;;;;;20.23;18.23;;;;;;;;;;5114596;28;20210;-75
2021/04/29 02:39:05;;;;;;;20.20;18.20;;;;;;;;;;5117130;27;20194;-75
2021/04/29 02:41:31;;;;;;;20.05;18.13;;;;;;;;;;5127344;27;20182;-75
2021/04/29 02:43:59;;;;;;;21.40;18.27;;;;;;;;;;5133205;27;20198;-74
2021/04/29 02:46:25;;;;;;;20.73;18.52;;;;;;;;;;5124587;27;20499;-73
2021/04/29 02:48:51;;;;;;;18.60;16.80;;;;;;;;;;5102152;28;20548;-75
2021/04/29 02:51:17;;;;;;;20.03;17.97;;;;;;;;;;5124349;27;20174;-74
2021/04/29 02:53:44;;;;;;;20.02;17.88;;;;;;;;;;5134853;27;20382;-75
2021/04/29 02:56:10;;;;;;;18.73;16.77;;;;;;;;;;5120189;27;20209;-74
2021/04/29 02:58:49;;;;;;;18.90;17.00;;;;;;;;;;5131019;27;20194;-73
2021/04/29 03:01:16;;;;;;;18.00;16.20;;;;;;;;;;5105985;27;20315;-74
2021/04/29 03:03:43;;;;;;;20.05;16.98;;;;;;;;;;5119399;27;20193;-73
2021/04/29 03:06:09;;;;;;;18.52;16.73;;;;;;;;;;5115815;27;20206;-75
2021/04/29 03:08:35;;;;;;;18.10;16.10;;;;;;;;;;5126046;27;20207;-74
2021/04/29 03:11:02;;;;;;;18.02;16.10;;;;;;;;;;5117370;27;20174;-74
2021/04/29 03:13:28;;;;;;;16.85;15.23;;;;;;;;;;5127452;27;20182;-73
2021/04/29 03:15:54;;;;;;;17.93;16.00;;;;;;;;;;5114933;28;20193;-74
2021/04/29 03:18:20;;;;;;;16.80;14.20;;;;;;;;;;5101224;28;20519;-75
2021/04/29 03:20:46;;;;;;;17.02;15.23;;;;;;;;;;5113706;28;20760;-74
2021/04/29 03:23:12;;;;;;;17.33;15.50;;;;;;;;;;5115251;27;20178;-75
2021/04/29 03:25:38;;;;;;;17.60;15.70;;;;;;;;;;5114946;27;20609;-74
2021/04/29 03:28:04;;;;;;;18.00;16.17;;;;;;;;;;5109994;28;20429;-74
2021/04/29 03:30:31;;;;;;;14.15;12.75;;;;;;;;;;5096465;28;20421;-74
2021/04/29 03:32:57;;;;;;;16.95;15.15;;;;;;;;;;5120020;27;20173;-74
2021/04/29 03:35:23;;;;;;;18.10;14.68;;;;;;;;;;5126219;27;20181;-75
2021/04/29 03:37:49;;;;;;;17.05;15.25;;;;;;;;;;5113278;28;20218;-73
2021/04/29 03:40:15;;;;;;;17.83;15.33;;;;;;;;;;5126637;27;20174;-74
2021/04/29 03:42:41;;;;;;;17.42;15.80;;;;;;;;;;5115475;27;20394;-74
2021/04/29 03:45:07;;;;;;;16.23;14.73;;;;;;;;;;5134678;27;20672;-74
2021/04/29 03:47:33;;;;;;;16.70;15.05;;;;;;;;;;5104559;27;20660;-74
2021/04/29 03:49:59;;;;;;;18.63;16.73;;;;;;;;;;5126351;27;20170;-75
2021/04/29 03:52:25;;;;;;;18.48;16.60;;;;;;;;;;5107359;27;20174;-74
2021/04/29 03:54:51;;;;;;;16.63;15.07;;;;;;;;;;5109101;28;20178;-75
2021/04/29 03:57:17;;;;;;;18.20;15.30;;;;;;;;;;5113717;28;20224;-75
2021/04/29 03:59:43;;;;;;;17.48;15.77;;;;;;;;;;5112707;28;20412;-73
2021/04/29 04:02:10;;;;;;;17.80;16.10;;;;;;;;;;5114482;28;20580;-74
2021/04/29 04:04:36;;;;;;;18.63;16.83;;;;;;;;;;5106481;28;20476;-75
2021/04/29 04:07:02;;;;;;;18.70;16.57;;;;;;;;;;5108694;27;20715;-73
2021/04/29 04:09:29;;;;;;;18.87;16.60;;;;;;;;;;5113613;28;20876;-77
2021/04/29 04:11:54;;;;;;;16.83;15.20;;;;;;;;;;5113822;28;20399;-73
2021/04/29 04:14:20;;;;;;;17.77;16.03;;;;;;;;;;5116021;27;20180;-74
2021/04/29 04:16:46;;;;;;;17.27;15.57;;;;;;;;;;5114600;27;20928;-74
2021/04/29 04:19:12;;;;;;;10.20;9.20;;;;;;;;;;5113662;28;20792;-72
2021/04/29 04:21:38;;;;;;;15.07;13.53;;;;;;;;;;5114043;28;20729;-74
2021/04/29 04:24:04;;;;;;;16.93;15.33;;;;;;;;;;5102815;28;20440;-75
2021/04/29 04:26:30;;;;;;;17.17;15.40;;;;;;;;;;5128729;27;20430;-74
2021/04/29 04:28:56;;;;;;;16.30;14.70;;;;;;;;;;5109185;27;20195;-73
2021/04/29 04:31:22;;;;;;;16.67;15.17;;;;;;;;;;5118509;27;20173;-74
2021/04/29 04:33:50;;;;;;;16.83;15.23;;;;;;;;;;5117315;27;21027;-74
2021/04/29 04:36:16;;;;;;;16.20;14.68;;;;;;;;;;5099943;28;20408;-74
2021/04/29 04:38:41;;;;;;;16.87;15.27;;;;;;;;;;5123916;27;20726;-74
2021/04/29 04:41:07;;;;;;;16.17;14.67;;;;;;;;;;5116354;27;20735;-73
2021/04/29 04:43:34;;;;;;;17.90;16.10;;;;;;;;;;5106554;28;20722;-75
2021/04/29 04:46:00;;;;;;;17.63;15.82;;;;;;;;;;5110233;28;20380;-75
2021/04/29 04:48:26;;;;;;;16.93;15.30;;;;;;;;;;5110770;28;20204;-74
2021/04/29 04:50:52;;;;;;;17.52;15.80;;;;;;;;;;5125736;28;20435;-74
2021/04/29 04:53:19;;;;;;;17.20;15.60;;;;;;;;;;5114501;28;20209;-74
2021/04/29 04:55:47;;;;;;;18.10;16.38;;;;;;;;;;5118945;27;20181;-74
2021/04/29 04:58:14;;;;;;;17.83;16.13;;;;;;;;;;5122190;27;20244;-75
2021/04/29 05:00:40;;;;;;;17.92;16.23;;;;;;;;;;5143119;27;20221;-73
2021/04/29 05:03:06;;;;;;;18.07;16.37;;;;;;;;;;5130709;27;20174;-75
2021/04/29 05:05:32;;;;;;;17.83;16.02;;;;;;;;;;5131355;27;20448;-75
2021/04/29 05:08:00;;;;;;;19.42;17.42;;;;;;;;;;5127798;27;20247;-75
2021/04/29 05:10:26;;;;;;;21.00;18.92;;;;;;;;;;5122125;27;20166;-76
2021/04/29 05:12:52;;;;;;;18.08;16.15;;;;;;;;;;5123508;27;20216;-74
2021/04/29 05:15:18;;;;;;;19.42;17.42;;;;;;;;;;5117527;27;20265;-73
2021/04/29 05:17:44;;;;;;;18.38;16.55;;;;;;;;;;5117137;28;20202;-75
2021/04/29 05:20:10;;;;;;;19.87;17.87;;;;;;;;;;5124851;27;20181;-73
2021/04/29 05:22:36;;;;;;;18.65;16.85;;;;;;;;;;5122032;27;20425;-73
2021/04/29 05:25:03;;;;;;;18.73;16.83;;;;;;;;;;5123526;27;20208;-73
2021/04/29 05:27:29;;;;;;;20.35;18.35;;;;;;;;;;5128231;27;20477;-75
2021/04/29 05:29:55;;;;;;;19.38;17.50;;;;;;;;;;5120914;27;20178;-75
2021/04/29 05:32:21;;;;;;;20.30;18.40;;;;;;;;;;5116220;28;20181;-74
2021/04/29 05:34:47;;;;;;;20.33;18.13;;;;;;;;;;5127001;27;20399;-74
2021/04/29 05:37:13;;;;;;;20.60;18.38;;;;;;;;;;5103941;28;20764;-72
2021/04/29 05:39:39;;;;;;;22.10;19.90;;;;;;;;;;5131758;27;20182;-74
2021/04/29 05:42:05;;;;;;;19.90;17.90;;;;;;;;;;5115692;28;20406;-74
2021/04/29 05:44:31;;;;;;;19.02;17.23;;;;;;;;;;5115546;28;20422;-73
2021/04/29 05:46:57;;;;;;;19.37;17.53;;;;;;;;;;5125596;27;20638;-74
2021/04/29 05:49:22;;;;;;;18.70;16.90;;;;;;;;;;5112721;27;20419;-74
2021/04/29 05:51:48;;;;;;;18.93;17.00;;;;;;;;;;5124121;27;20485;-75
2021/04/29 05:54:14;;;;;;;38.03;18.00;;;;;;;;;;5136895;27;20427;-74
2021/04/29 05:56:40;;;;;;;19.57;17.57;;;;;;;;;;5134309;27;20657;-74
2021/04/29 05:59:06;;;;;;;19.97;18.17;;;;;;;;;;5114030;27;20762;-73
2021/04/29 06:01:32;;;;;;;19.63;17.75;;;;;;;;;;5116524;28;20401;-75
2021/04/29 06:03:59;;;;;;;24.67;22.20;;;;;;;;;;5116537;28;20195;-74
2021/04/29 06:06:25;;;;;;;21.35;19.10;;;;;;;;;;5111356;28;20269;-75
2021/04/29 06:08:51;;;;;;;21.40;19.30;;;;;;;;;;5127381;27;20303;-75
2021/04/29 06:11:17;;;;;;;21.38;19.23;;;;;;;;;;5112958;27;20380;-75
2021/04/29 06:13:44;;;;;;;20.30;18.40;;;;;;;;;;5114777;28;20175;-75
2021/04/29 06:16:11;;;;;;;21.90;19.90;;;;;;;;;;5120887;27;20167;-73
2021/04/29 06:18:37;;;;;;;20.63;18.48;;;;;;;;;;5122914;27;20194;-74
2021/04/29 06:21:03;;;;;;;21.90;19.60;;;;;;;;;;5123539;27;20628;-75
2021/04/29 06:23:31;;;;;;;18.75;14.82;;;;;;;;;;5122871;27;20410;-75
2021/04/29 06:25:57;;;;;;;21.88;19.60;;;;;;;;;;5121336;27;20226;-75
2021/04/29 06:28:23;;;;;;;23.25;21.02;;;;;;;;;;5103052;28;20183;-75
2021/04/29 06:30:49;;;;;;;20.55;18.65;;;;;;;;;;5108124;27;20265;-75
2021/04/29 06:33:15;;;;;;;20.83;18.83;;;;;;;;;;5128955;27;20304;-75
2021/04/29 06:35:41;;;;;;;22.23;20.03;;;;;;;;;;5116902;27;20877;-74
2021/04/29 06:38:07;;;;;;;21.47;19.33;;;;;;;;;;5134915;27;20436;-75
2021/04/29 06:40:33;;;;;;;22.43;20.23;;;;;;;;;;5116460;27;20917;-76
2021/04/29 06:42:59;;;;;;;21.38;19.38;;;;;;;;;;5126159;27;20405;-75
2021/04/29 06:45:25;;;;;;;24.37;21.97;;;;;;;;;;5131241;27;20636;-77
2021/04/29 06:47:51;;;;;;;26.07;21.03;;;;;;;;;;5117172;27;20413;-76
2021/04/29 06:50:17;;;;;;;22.40;20.20;;;;;;;;;;5107600;27;20393;-75
2021/04/29 06:52:43;;;;;;;26.23;21.77;;;;;;;;;;5109174;27;20421;-74
2021/04/29 06:55:09;;;;;;;24.25;21.80;;;;;;;;;;5111342;28;20183;-73
2021/04/29 06:57:35;;;;;;;22.13;19.92;;;;;;;;;;5101069;28;20691;-75
2021/04/29 07:00:01;;;;;;;22.38;20.25;;;;;;;;;;5111695;28;20240;-75
2021/04/29 07:02:27;;;;;;;24.80;22.20;;;;;;;;;;5111578;28;20170;-76
2021/04/29 07:04:53;;;;;;;24.00;21.60;;;;;;;;;;5110949;27;20959;-75
2021/04/29 07:07:19;;;;;;;24.43;20.70;;;;;;;;;;5124842;27;20528;-76
2021/04/29 07:09:45;;;;;;;24.57;22.20;;;;;;;;;;5121813;27;20372;-74
2021/04/29 07:12:11;;;;;;;24.40;22.03;;;;;;;;;;5130696;27;20772;-75
2021/04/29 07:14:37;;;;;;;24.33;21.83;;;;;;;;;;5117894;27;20499;-75
2021/04/29 07:17:03;;;;;;;25.03;22.43;;;;;;;;;;5130269;27;20296;-76
2021/04/29 07:19:29;;;;;;;23.63;21.20;;;;;;;;;;5130981;27;20488;-76
2021/04/29 07:21:55;;;;;;;24.40;22.00;;;;;;;;;;5124522;27;20422;-75
2021/04/29 07:24:21;;;;;;;21.97;19.77;;;;;;;;;;5105801;28;20666;-74
2021/04/29 07:26:47;;;;;;;23.53;21.10;;;;;;;;;;5105242;28;20413;-75
2021/04/29 07:29:13;;;;;;;23.70;21.47;;;;;;;;;;5111940;27;20383;-77
2021/04/29 07:31:39;;;;;;;23.25;20.75;;;;;;;;;;5105513;27;20404;-74
2021/04/29 07:34:05;;;;;;;23.65;21.25;;;;;;;;;;5112995;27;20177;-74
2021/04/29 07:36:31;;;;;;;23.60;21.30;;;;;;;;;;5107093;28;20705;-73
2021/04/29 07:38:58;;;;;;;22.95;20.85;;;;;;;;;;5115822;27;20436;-75
2021/04/29 07:41:26;;;;;;;24.17;21.88;;;;;;;;;;5112995;27;20588;-74
2021/04/29 07:43:52;;;;;;;24.52;22.13;;;;;;;;;;5110619;27;20233;-74
2021/04/29 07:46:36;;;;;;;25.27;22.75;;;;;;;;;;5123186;27;20170;-76
2021/04/29 07:49:02;;;;;;;25.23;22.73;;;;;;;;;;5108093;28;20194;-76
2021/04/29 07:51:28;;;;;;;24.85;22.50;;;;;;;;;;5128424;27;20184;-73
2021/04/29 07:53:54;;;;;;;26.40;23.70;;;;;;;;;;5129576;27;20178;-75
2021/04/29 07:56:20;;;;;;;26.07;23.47;;;;;;;;;;5119663;27;20413;-74
2021/04/29 07:58:46;;;;;;;25.83;23.10;;;;;;;;;;5113968;27;20435;-76
2021/04/29 08:01:12;;;;;;;26.60;23.88;;;;;;;;;;5109813;27;20819;-76
2021/04/29 08:03:38;;;;;;;24.57;22.20;;;;;;;;;;5099454;27;20265;-73
2021/04/29 08:06:09;;;;;;;24.60;22.20;;;;;;;;;;5110531;27;20463;-72
2021/04/29 08:08:35;;;;;;;25.67;22.98;;;;;;;;;;5127869;27;20190;-72
2021/04/29 08:11:01;;;;;;;36.67;31.93;;;;;;;;;;5126420;27;20182;-73
2021/04/29 08:13:28;;;;;;;26.50;23.70;;;;;;;;;;5112552;27;20387;-73
2021/04/29 08:15:54;;;;;;;25.08;21.98;;;;;;;;;;5119957;27;20185;-73
2021/04/29 08:18:20;;;;;;;25.30;22.73;;;;;;;;;;5130327;27;20289;-73
2021/04/29 08:20:46;;;;;;;25.13;22.63;;;;;;;;;;5119027;27;20261;-72
2021/04/29 08:23:14;;;;;;;24.63;22.13;;;;;;;;;;5109220;28;20470;-72
2021/04/29 08:25:40;;;;;;;24.50;22.08;;;;;;;;;;5100314;28;20534;-73
2021/04/29 08:28:06;;;;;;;24.40;22.10;;;;;;;;;;5117004;27;20739;-71
2021/04/29 08:30:32;;;;;;;24.88;22.33;;;;;;;;;;5104150;27;20742;-71
2021/04/29 08:32:59;;;;;;;24.23;21.90;;;;;;;;;;5120725;27;20170;-72
2021/04/29 08:35:26;;;;;;;24.92;22.42;;;;;;;;;;5106198;28;20182;-72
2021/04/29 08:37:52;;;;;;;24.67;22.20;;;;;;;;;;5114825;27;20197;-72
2021/04/29 08:40:22;;;;;;;27.00;24.15;;;;;;;;;;5117052;27;20182;-72
2021/04/29 08:42:48;;;;;;;25.73;23.23;;;;;;;;;;5096902;28;20193;-73
2021/04/29 08:45:18;;;;;;;27.65;24.85;;;;;;;;;;5109888;28;20206;-74
2021/04/29 08:47:48;;;;;;;25.90;23.25;;;;;;;;;;5109335;28;20676;-73
2021/04/29 08:50:14;;;;;;;28.85;25.77;;;;;;;;;;5117006;28;20210;-73
2021/04/29 08:52:40;;;;;;;25.83;23.30;;;;;;;;;;5110087;28;20210;-73
2021/04/29 08:55:07;;;;;;;26.13;23.48;;;;;;;;;;5112456;28;20399;-73
2021/04/29 08:57:33;;;;;;;27.15;24.55;;;;;;;;;;5108347;28;20929;-73
2021/04/29 08:59:59;;;;;;;26.00;23.30;;;;;;;;;;5120521;28;20587;-73
2021/04/29 09:02:34;;;;;;;26.40;23.80;;;;;;;;;;5123682;28;20178;-74
2021/04/29 09:05:14;;;;;;;28.38;25.30;;;;;;;;;;5108317;28;20434;-73
2021/04/29 09:07:51;;;;;;;26.65;24.13;;;;;;;;;;5117772;28;20193;-73
2021/04/29 09:10:21;;;;;;;29.63;26.13;;;;;;;;;;5114226;28;20174;-73
2021/04/29 09:12:47;;;;;;;25.20;22.80;;;;;;;;;;5107750;28;20585;-73
2021/04/29 09:15:23;;;;;;;28.20;25.33;;;;;;;;;;5108686;28;20282;-73
2021/04/29 09:18:08;;;;;;;27.00;24.10;;;;;;;;;;5108124;28;20447;-72
2021/04/29 09:20:35;;;;;;;25.98;23.33;;;;;;;;;;5128737;28;20280;-73
2021/04/29 09:23:02;;;;;;;25.80;23.20;;;;;;;;;;5124024;28;20181;-73
2021/04/29 09:25:29;;;;;;;27.45;24.85;;;;;;;;;;5110984;28;20267;-73
2021/04/29 09:27:55;;;;;;;27.15;24.50;;;;;;;;;;5104704;28;20197;-72
2021/04/29 09:30:25;;;;;;;25.63;23.10;;;;;;;;;;5106756;28;20186;-73
2021/04/29 09:32:51;;;;;;;26.38;23.70;;;;;;;;;;5112663;28;20416;-73
2021/04/29 09:35:18;;;;;;;26.00;23.48;;;;;;;;;;5122181;28;20213;-72
2021/04/29 09:37:44;;;;;;;29.48;26.30;;;;;;;;;;5122432;28;20230;-73
2021/04/29 09:40:13;;;;;;;27.20;24.43;;;;;;;;;;5104885;28;20207;-72
2021/04/29 09:42:39;;;;;;;27.48;24.58;;;;;;;;;;5124110;27;20518;-73
2021/04/29 09:45:16;;;;;;;30.35;27.05;;;;;;;;;;5117646;27;20202;-73
2021/04/29 09:47:52;;;;;;;29.60;25.83;;;;;;;;;;5121084;27;20274;-73
2021/04/29 09:50:22;;;;;;;27.98;25.27;;;;;;;;;;5111897;27;20231;-73
2021/04/29 09:52:56;;;;;;;29.83;26.85;;;;;;;;;;5133024;27;20181;-73
2021/04/29 09:55:26;;;;;;;28.80;25.88;;;;;;;;;;5113968;27;20178;-73
2021/04/29 09:58:00;;;;;;;28.33;25.63;;;;;;;;;;5103752;28;20204;-73
2021/04/29 10:00:26;;;;;;;29.00;24.95;;;;;;;;;;5119407;27;20256;-72
2021/04/29 10:02:52;;;;;;;28.87;25.83;;;;;;;;;;5126901;27;20263;-72
2021/04/29 10:05:18;;;;;;;29.00;26.10;;;;;;;;;;5115151;27;20467;-73
2021/04/29 10:07:44;;;;;;;29.27;25.60;;;;;;;;;;5109985;28;21079;-72
2021/04/29 10:10:10;;;;;;;29.03;25.77;;;;;;;;;;5135894;27;20270;-73
2021/04/29 10:12:36;;;;;;;26.80;24.27;;;;;;;;;;5112615;27;20413;-72
2021/04/29 10:15:02;;;;;;;28.75;25.90;;;;;;;;;;5119042;27;20174;-73
2021/04/29 10:17:29;;;;;;;28.75;25.88;;;;;;;;;;5118018;27;20199;-72
2021/04/29 10:19:57;;;;;;;29.60;26.70;;;;;;;;;;5115090;27;20197;-72
2021/04/29 10:22:24;;;;;;;29.63;26.73;;;;;;;;;;5131782;27;20582;-73
2021/04/29 10:24:50;;;;;;;29.40;26.60;;;;;;;;;;5132302;27;20201;-73
2021/04/29 10:27:23;;;;;;;30.00;27.00;;;;;;;;;;5112949;27;20238;-74
2021/04/29 10:30:12;;;;;;;29.42;26.27;;;;;;;;;;5117620;27;20562;-74
2021/04/29 10:32:38;;;;;;;28.63;25.83;;;;;;;;;;5126249;27;20197;-73
2021/04/29 10:35:20;;;;;;;30.02;27.05;;;;;;;;;;5131655;27;20180;-73
2021/04/29 10:38:00;;;;;;;29.83;26.92;;;;;;;;;;5119443;27;20696;-73
2021/04/29 10:40:39;;;;;;;28.80;26.10;;;;;;;;;;5119952;27;20239;-74
2021/04/29 10:43:05;;;;;;;29.98;26.95;;;;;;;;;;5100682;28;20729;-73
2021/04/29 10:45:31;;;;;;;29.88;27.00;;;;;;;;;;5113155;27;20210;-73
2021/04/29 10:48:11;;;;;;;31.67;28.42;;;;;;;;;;5107302;27;20199;-73
2021/04/29 10:50:47;;;;;;;31.77;28.40;;;;;;;;;;5125312;27;20181;-73
2021/04/29 10:53:14;;;;;;;31.52;28.27;;;;;;;;;;5117852;27;20171;-73
2021/04/29 10:55:43;;;;;;;32.20;28.80;;;;;;;;;;5116454;27;20178;-72
2021/04/29 10:58:21;;;;;;;33.22;29.73;;;;;;;;;;5113046;27;20216;-72
2021/04/29 11:00:54;;;;;;;34.80;31.10;;;;;;;;;;5105530;27;20233;-71
2021/04/29 11:03:30;;;;;;;33.63;28.77;;;;;;;;;;5114883;27;20204;-72
2021/04/29 11:06:06;;;;;;;34.20;30.60;;;;;;;;;;5131778;27;20267;-72
2021/04/29 11:08:39;;;;;;;35.38;31.50;;;;;;;;;;5110161;27;20539;-72
2021/04/29 11:11:06;;;;;;;34.05;30.55;;;;;;;;;;5110887;28;20516;-72
2021/04/29 11:13:32;;;;;;;33.63;30.10;;;;;;;;;;5124960;27;20209;-72
2021/04/29 11:15:59;;;;;;;33.60;30.05;;;;;;;;;;5100608;27;20187;-73
2021/04/29 11:18:26;;;;;;;33.05;29.75;;;;;;;;;;5121393;27;20248;-73
2021/04/29 11:20:56;;;;;;;31.65;27.75;;;;;;;;;;5130345;27;20193;-72
2021/04/29 11:23:27;;;;;;;33.35;29.83;;;;;;;;;;5122282;27;20170;-73
2021/04/29 11:26:06;;;;;;;29.95;26.75;;;;;;;;;;5123418;27;20241;-73
2021/04/29 11:28:32;;;;;;;35.70;32.00;;;;;;;;;;5117131;27;20293;-72
2021/04/29 11:30:58;;;;;;;32.03;28.83;;;;;;;;;;5118709;27;20263;-72
2021/04/29 11:33:35;;;;;;;30.92;27.73;;;;;;;;;;5112748;27;20420;-73
2021/04/29 11:36:02;;;;;;;32.58;29.17;;;;;;;;;;5112016;27;20182;-72
2021/04/29 11:38:28;;;;;;;33.28;29.90;;;;;;;;;;5119585;27;20330;-73
2021/04/29 11:40:54;;;;;;;31.00;27.92;;;;;;;;;;5113640;27;20583;-73
2021/04/29 11:43:22;;;;;;;33.27;29.73;;;;;;;;;;5129408;27;20250;-73
2021/04/29 11:45:50;;;;;;;33.22;29.83;;;;;;;;;;5122560;27;20865;-71
2021/04/29 11:48:16;;;;;;;33.33;29.88;;;;;;;;;;5100823;28;20226;-72
2021/04/29 11:50:51;;;;;;;34.35;30.73;;;;;;;;;;5109181;28;20255;-72
2021/04/29 11:53:37;;;;;;;34.55;29.95;;;;;;;;;;5109373;28;20177;-74
2021/04/29 11:56:04;;;;;;;32.03;28.73;;;;;;;;;;5108912;28;20202;-74
2021/04/29 11:58:31;;;;;;;31.88;28.67;;;;;;;;;;5107427;28;20615;-73
2021/04/29 12:00:57;;;;;;;36.85;31.45;;;;;;;;;;5110234;28;20256;-74
2021/04/29 12:03:24;;;;;;;37.33;31.42;;;;;;;;;;5106892;28;20183;-74
2021/04/29 12:05:51;;;;;;;36.35;32.55;;;;;;;;;;5099550;28;20571;-73
2021/04/29 12:08:23;;;;;;;37.92;33.92;;;;;;;;;;5106090;28;20225;-73
2021/04/29 12:10:56;;;;;;;36.80;32.90;;;;;;;;;;5110303;28;20227;-72
2021/04/29 12:13:30;;;;;;;37.58;33.72;;;;;;;;;;5109921;28;20240;-73
2021/04/29 12:15:57;;;;;;;36.35;32.45;;;;;;;;;;5110226;28;20177;-72
2021/04/29 12:18:23;;;;;;;36.92;32.85;;;;;;;;;;5109899;28;20215;-71
2021/04/29 12:20:49;;;;;;;42.25;34.40;;;;;;;;;;5106495;28;20197;-72
2021/04/29 12:23:15;;;;;;;39.47;34.92;;;;;;;;;;5109490;28;20174;-72
2021/04/29 12:25:44;;;;;;;39.13;34.80;;;;;;;;;;5100347;28;20282;-72
2021/04/29 12:28:16;;;;;;;43.10;33.90;;;;;;;;;;5105881;28;20220;-72
2021/04/29 12:30:42;;;;;;;37.45;32.92;;;;;;;;;;5109777;28;20740;-72
2021/04/29 12:33:20;;;;;;;38.08;33.55;;;;;;;;;;5109319;28;20183;-74
2021/04/29 12:35:46;;;;;;;37.92;33.83;;;;;;;;;;5109466;28;20197;-72
2021/04/29 12:38:12;;;;;;;37.28;32.88;;;;;;;;;;5107144;28;20289;-72
2021/04/29 12:40:38;;;;;;;38.20;34.10;;;;;;;;;;5109630;28;20182;-73
2021/04/29 12:43:13;;;;;;;40.97;35.10;;;;;;;;;;5109149;28;20186;-73
2021/04/29 12:45:51;;;;;;;41.25;33.85;;;;;;;;;;5109357;28;20231;-72
2021/04/29 12:48:36;;;;;;;39.50;34.20;;;;;;;;;;5107423;28;20198;-73
2021/04/29 12:51:04;;;;;;;40.17;34.42;;;;;;;;;;5106982;28;20231;-72
2021/04/29 12:53:31;;;;;;;38.35;33.85;;;;;;;;;;5109359;28;20178;-73
2021/04/29 12:55:57;;;;;;;38.15;34.10;;;;;;;;;;5100697;28;20250;-71
2021/04/29 12:58:24;;;;;;;40.05;32.50;;;;;;;;;;5109409;28;20904;-75
2021/04/29 13:00:51;;;;;;;38.15;32.58;;;;;;;;;;5103287;28;20547;-72
2021/04/29 13:03:17;;;;;;;39.55;32.20;;;;;;;;;;5108443;28;20182;-72
2021/04/29 13:05:43;;;;;;;39.20;33.97;;;;;;;;;;5104620;28;20215;-73
2021/04/29 13:08:09;;;;;;;37.63;31.87;;;;;;;;;;5108711;28;20281;-72
2021/04/29 13:10:40;;;;;;;38.67;33.40;;;;;;;;;;5106843;28;20402;-73
2021/04/29 13:13:06;;;;;;;43.42;35.58;;;;;;;;;;5106999;28;20407;-74
2021/04/29 13:15:33;;;;;;;42.50;34.97;;;;;;;;;;5107387;28;20189;-72
2021/04/29 13:18:00;;;;;;;38.13;34.13;;;;;;;;;;5112362;28;20477;-72
2021/04/29 13:20:29;;;;;;;40.03;34.05;;;;;;;;;;5113054;28;20182;-72
2021/04/29 13:22:55;;;;;;;40.05;35.08;;;;;;;;;;5113114;28;20190;-72
2021/04/29 13:25:24;;;;;;;38.33;34.33;;;;;;;;;;5109214;28;20674;-72
2021/04/29 13:27:51;;;;;;;36.63;32.78;;;;;;;;;;5111446;28;20764;-72
2021/04/29 13:30:18;;;;;;;36.47;32.50;;;;;;;;;;5109829;28;20171;-72
2021/04/29 13:32:44;;;;;;;40.55;33.95;;;;;;;;;;5111494;28;20187;-73
2021/04/29 13:35:11;;;;;;;36.92;32.90;;;;;;;;;;5113213;28;20287;-72
2021/04/29 13:37:38;;;;;;;25.83;23.10;;;;;;;;;;5108527;28;20195;-71
2021/04/29 13:40:06;;;;;;;24.63;22.13;;;;;;;;;;5111533;28;20175;-72
2021/04/29 13:42:33;;;;;;;31.38;27.20;;;;;;;;;;5112932;28;20178;-72
2021/04/29 13:44:59;;;;;;;32.70;29.35;;;;;;;;;;5112874;28;20202;-72
2021/04/29 13:47:25;;;;;;;35.13;29.90;;;;;;;;;;5112607;28;20209;-72
2021/04/29 13:49:51;;;;;;;34.53;30.83;;;;;;;;;;5112150;28;20747;-71
2021/04/29 13:52:17;;;;;;;35.40;31.67;;;;;;;;;;5109805;28;20174;-73
2021/04/29 13:54:43;;;;;;;34.47;30.77;;;;;;;;;;5113333;28;20813;-74
2021/04/29 13:57:10;;;;;;;34.20;30.70;;;;;;;;;;5110221;28;20595;-72
2021/04/29 13:59:36;;;;;;;35.40;31.60;;;;;;;;;;5112697;28;20235;-73
2021/04/29 14:02:02;;;;;;;31.88;28.55;;;;;;;;;;5110927;28;20186;-72
2021/04/29 14:04:28;;;;;;;33.60;29.92;;;;;;;;;;5112813;28;20204;-72
2021/04/29 14:06:54;;;;;;;32.43;29.07;;;;;;;;;;5110966;28;20277;-73
2021/04/29 14:09:20;;;;;;;34.53;29.60;;;;;;;;;;5112458;28;20385;-71
2021/04/29 14:11:49;;;;;;;31.57;28.43;;;;;;;;;;5111235;27;20826;-72
2021/04/29 14:14:15;;;;;;;35.33;30.50;;;;;;;;;;5112437;28;20733;-73
2021/04/29 14:16:41;;;;;;;33.97;28.33;;;;;;;;;;5106249;28;20232;-73
2021/04/29 14:19:07;;;;;;;32.40;28.90;;;;;;;;;;5112374;28;20439;-72